Waynesville, Missouri
Current Conditions -  °F | °C
As of 6:58 PM on Wednesday 22 Oct 2014 (Local Time) from KTBN Reporting Station
Clear Clear  
Wind Chill: 58°   Ceiling: Unl
Heat Index: 58°   Visibility: 10mi
Dew Point: 46°   Wind: 5mph
Humidity: 65%   Direction: 130°SE
Pressure: 30.18"   Gusts: NA
Location:  37.83°N, 92.2°W
Report Text: KTBN 222358Z AUTO 13004KT 10SM CLR 15/08 A3018 RMK AO2 SLP223 T01450079 10200 20145 55002
Loading
Personal Weather Stations






























Interactive Weather Map
Tropical Storm Tracking
New forecast layout! Learn more

10-Day Weather Forecast

Advertisements
Track Severe Weather on mobile